sensor_id;sensor_type;location;lat;lon;timestamp;P1;durP1;ratioP1;P2;durP2;ratioP2
49614;SDS011;35517;45.272;9.984;2023-06-14T00:00:38;12.82;;;11.35;;
49614;SDS011;35517;45.272;9.984;2023-06-14T00:03:06;13.25;;;11.82;;
49614;SDS011;35517;45.272;9.984;2023-06-14T00:05:37;13.15;;;11.85;;
49614;SDS011;35517;45.272;9.984;2023-06-14T00:08:06;12.85;;;11.65;;
49614;SDS011;35517;45.272;9.984;2023-06-14T00:10:33;13.52;;;12.23;;
49614;SDS011;35517;45.272;9.984;2023-06-14T00:13:01;16.05;;;13.23;;
49614;SDS011;35517;45.272;9.984;2023-06-14T00:15:28;12.88;;;11.60;;
49614;SDS011;35517;45.272;9.984;2023-06-14T00:17:56;13.30;;;10.50;;
49614;SDS011;35517;45.272;9.984;2023-06-14T00:20:26;11.70;;;10.50;;
49614;SDS011;35517;45.272;9.984;2023-06-14T00:22:53;14.02;;;11.10;;
49614;SDS011;35517;45.272;9.984;2023-06-14T00:25:22;18.15;;;11.55;;
49614;SDS011;35517;45.272;9.984;2023-06-14T00:27:51;22.75;;;10.75;;
49614;SDS011;35517;45.272;9.984;2023-06-14T00:30:17;11.15;;;10.02;;
49614;SDS011;35517;45.272;9.984;2023-06-14T00:32:44;13.20;;;10.98;;
49614;SDS011;35517;45.272;9.984;2023-06-14T00:35:11;15.55;;;11.02;;
49614;SDS011;35517;45.272;9.984;2023-06-14T00:37:37;15.00;;;11.18;;
49614;SDS011;35517;45.272;9.984;2023-06-14T00:40:04;11.70;;;10.48;;
49614;SDS011;35517;45.272;9.984;2023-06-14T00:42:31;14.38;;;11.52;;
49614;SDS011;35517;45.272;9.984;2023-06-14T00:44:58;15.50;;;11.23;;
49614;SDS011;35517;45.272;9.984;2023-06-14T00:47:24;15.52;;;11.85;;
49614;SDS011;35517;45.272;9.984;2023-06-14T00:49:52;16.80;;;10.88;;
49614;SDS011;35517;45.272;9.984;2023-06-14T00:52:20;11.68;;;10.13;;
49614;SDS011;35517;45.272;9.984;2023-06-14T00:54:46;13.02;;;11.15;;
49614;SDS011;35517;45.272;9.984;2023-06-14T00:57:13;13.50;;;11.05;;
49614;SDS011;35517;45.272;9.984;2023-06-14T00:59:43;15.85;;;11.63;;
49614;SDS011;35517;45.272;9.984;2023-06-14T01:02:10;13.13;;;11.50;;
49614;SDS011;35517;45.272;9.984;2023-06-14T01:04:37;13.20;;;11.15;;
49614;SDS011;35517;45.272;9.984;2023-06-14T01:12:35;14.20;;;11.57;;
49614;SDS011;35517;45.272;9.984;2023-06-14T01:15:02;15.50;;;11.95;;
49614;SDS011;35517;45.272;9.984;2023-06-14T01:17:29;12.68;;;11.30;;
49614;SDS011;35517;45.272;9.984;2023-06-14T01:19:58;16.73;;;11.20;;
49614;SDS011;35517;45.272;9.984;2023-06-14T01:22:26;14.82;;;12.65;;
49614;SDS011;35517;45.272;9.984;2023-06-14T01:24:54;15.65;;;11.88;;
49614;SDS011;35517;45.272;9.984;2023-06-14T01:27:24;13.18;;;11.77;;
49614;SDS011;35517;45.272;9.984;2023-06-14T01:29:55;14.27;;;12.73;;
49614;SDS011;35517;45.272;9.984;2023-06-14T01:32:27;16.83;;;13.65;;
49614;SDS011;35517;45.272;9.984;2023-06-14T01:34:55;14.52;;;11.35;;
49614;SDS011;35517;45.272;9.984;2023-06-14T01:37:22;13.43;;;11.15;;
49614;SDS011;35517;45.272;9.984;2023-06-14T01:39:49;14.75;;;11.30;;
49614;SDS011;35517;45.272;9.984;2023-06-14T01:42:18;11.95;;;10.57;;
49614;SDS011;35517;45.272;9.984;2023-06-14T01:44:45;15.18;;;11.27;;
49614;SDS011;35517;45.272;9.984;2023-06-14T01:47:12;11.60;;;10.40;;
49614;SDS011;35517;45.272;9.984;2023-06-14T01:49:40;11.95;;;10.70;;
49614;SDS011;35517;45.272;9.984;2023-06-14T01:52:08;13.23;;;11.25;;
49614;SDS011;35517;45.272;9.984;2023-06-14T01:54:35;15.13;;;11.20;;
49614;SDS011;35517;45.272;9.984;2023-06-14T01:57:07;14.05;;;10.60;;
49614;SDS011;35517;45.272;9.984;2023-06-14T01:59:34;13.45;;;11.18;;
49614;SDS011;35517;45.272;9.984;2023-06-14T02:02:02;12.45;;;10.60;;
49614;SDS011;35517;45.272;9.984;2023-06-14T02:04:31;12.48;;;11.02;;
49614;SDS011;35517;45.272;9.984;2023-06-14T02:06:58;10.70;;;9.60;;
49614;SDS011;35517;45.272;9.984;2023-06-14T02:09:24;12.85;;;9.77;;
49614;SDS011;35517;45.272;9.984;2023-06-14T02:11:53;12.38;;;10.00;;
49614;SDS011;35517;45.272;9.984;2023-06-14T02:14:20;12.63;;;9.15;;
49614;SDS011;35517;45.272;9.984;2023-06-14T02:16:47;10.45;;;8.73;;
49614;SDS011;35517;45.272;9.984;2023-06-14T02:19:16;9.80;;;8.82;;
49614;SDS011;35517;45.272;9.984;2023-06-14T02:21:43;10.63;;;7.47;;
49614;SDS011;35517;45.272;9.984;2023-06-14T02:24:12;8.38;;;6.72;;
49614;SDS011;35517;45.272;9.984;2023-06-14T02:26:38;9.52;;;7.07;;
49614;SDS011;35517;45.272;9.984;2023-06-14T02:29:07;7.60;;;6.82;;
49614;SDS011;35517;45.272;9.984;2023-06-14T02:31:38;8.80;;;7.78;;
49614;SDS011;35517;45.272;9.984;2023-06-14T02:34:04;8.25;;;6.53;;
49614;SDS011;35517;45.272;9.984;2023-06-14T02:36:31;8.13;;;6.53;;
49614;SDS011;35517;45.272;9.984;2023-06-14T02:38:59;7.45;;;6.45;;
49614;SDS011;35517;45.272;9.984;2023-06-14T02:41:26;8.35;;;7.50;;
49614;SDS011;35517;45.272;9.984;2023-06-14T02:43:53;10.20;;;7.82;;
49614;SDS011;35517;45.272;9.984;2023-06-14T02:46:19;9.40;;;7.80;;
49614;SDS011;35517;45.272;9.984;2023-06-14T02:48:48;8.95;;;8.05;;
49614;SDS011;35517;45.272;9.984;2023-06-14T02:51:15;11.05;;;7.00;;
49614;SDS011;35517;45.272;9.984;2023-06-14T02:53:41;6.45;;;5.63;;
49614;SDS011;35517;45.272;9.984;2023-06-14T02:56:10;6.32;;;5.72;;
49614;SDS011;35517;45.272;9.984;2023-06-14T02:58:37;6.22;;;5.63;;
49614;SDS011;35517;45.272;9.984;2023-06-14T03:01:05;7.60;;;5.97;;
49614;SDS011;35517;45.272;9.984;2023-06-14T03:03:33;6.22;;;5.45;;
49614;SDS011;35517;45.272;9.984;2023-06-14T03:06:00;6.45;;;5.22;;
49614;SDS011;35517;45.272;9.984;2023-06-14T03:08:30;10.95;;;5.50;;
49614;SDS011;35517;45.272;9.984;2023-06-14T03:11:04;6.80;;;6.03;;
49614;SDS011;35517;45.272;9.984;2023-06-14T03:13:32;5.55;;;4.57;;
49614;SDS011;35517;45.272;9.984;2023-06-14T03:15:58;5.25;;;4.75;;
49614;SDS011;35517;45.272;9.984;2023-06-14T03:18:31;4.85;;;4.35;;
49614;SDS011;35517;45.272;9.984;2023-06-14T03:21:01;5.45;;;4.78;;
49614;SDS011;35517;45.272;9.984;2023-06-14T03:23:29;7.25;;;4.47;;
49614;SDS011;35517;45.272;9.984;2023-06-14T03:25:55;5.60;;;4.63;;
49614;SDS011;35517;45.272;9.984;2023-06-14T03:28:22;6.10;;;4.15;;
49614;SDS011;35517;45.272;9.984;2023-06-14T03:30:49;5.88;;;4.55;;
49614;SDS011;35517;45.272;9.984;2023-06-14T03:33:16;5.50;;;4.43;;
49614;SDS011;35517;45.272;9.984;2023-06-14T03:35:44;4.90;;;4.40;;
49614;SDS011;35517;45.272;9.984;2023-06-14T03:38:10;5.97;;;4.35;;
49614;SDS011;35517;45.272;9.984;2023-06-14T03:40:37;5.03;;;4.53;;
49614;SDS011;35517;45.272;9.984;2023-06-14T03:43:05;5.13;;;4.63;;
49614;SDS011;35517;45.272;9.984;2023-06-14T03:45:32;5.97;;;4.65;;
49614;SDS011;35517;45.272;9.984;2023-06-14T03:47:59;4.78;;;4.38;;
49614;SDS011;35517;45.272;9.984;2023-06-14T03:50:27;7.50;;;4.97;;
49614;SDS011;35517;45.272;9.984;2023-06-14T03:52:54;6.72;;;5.28;;
49614;SDS011;35517;45.272;9.984;2023-06-14T03:55:21;8.00;;;4.70;;
49614;SDS011;35517;45.272;9.984;2023-06-14T03:57:51;6.95;;;5.45;;
49614;SDS011;35517;45.272;9.984;2023-06-14T04:00:17;6.55;;;5.18;;
49614;SDS011;35517;45.272;9.984;2023-06-14T04:02:44;7.25;;;5.38;;
49614;SDS011;35517;45.272;9.984;2023-06-14T04:05:11;6.47;;;5.30;;
49614;SDS011;35517;45.272;9.984;2023-06-14T04:07:43;7.38;;;5.53;;
49614;SDS011;35517;45.272;9.984;2023-06-14T04:10:14;5.95;;;5.35;;
49614;SDS011;35517;45.272;9.984;2023-06-14T04:12:41;5.78;;;5.18;;
49614;SDS011;35517;45.272;9.984;2023-06-14T04:15:08;7.40;;;5.07;;
49614;SDS011;35517;45.272;9.984;2023-06-14T04:17:36;8.40;;;4.90;;
49614;SDS011;35517;45.272;9.984;2023-06-14T04:20:04;8.13;;;5.47;;
49614;SDS011;35517;45.272;9.984;2023-06-14T04:22:32;5.78;;;5.15;;
49614;SDS011;35517;45.272;9.984;2023-06-14T04:24:59;7.20;;;4.65;;
49614;SDS011;35517;45.272;9.984;2023-06-14T04:27:26;6.60;;;5.50;;
49614;SDS011;35517;45.272;9.984;2023-06-14T04:29:54;10.65;;;5.30;;
49614;SDS011;35517;45.272;9.984;2023-06-14T04:32:33;6.20;;;4.85;;
49614;SDS011;35517;45.272;9.984;2023-06-14T04:35:05;6.03;;;5.03;;
49614;SDS011;35517;45.272;9.984;2023-06-14T04:37:32;6.15;;;5.13;;
49614;SDS011;35517;45.272;9.984;2023-06-14T04:39:59;5.68;;;4.93;;
49614;SDS011;35517;45.272;9.984;2023-06-14T04:42:26;7.00;;;4.90;;
49614;SDS011;35517;45.272;9.984;2023-06-14T04:44:58;9.07;;;5.30;;
49614;SDS011;35517;45.272;9.984;2023-06-14T04:47:25;7.13;;;5.75;;
49614;SDS011;35517;45.272;9.984;2023-06-14T04:49:57;8.82;;;6.03;;
49614;SDS011;35517;45.272;9.984;2023-06-14T04:52:26;8.13;;;6.30;;
49614;SDS011;35517;45.272;9.984;2023-06-14T04:54:54;11.10;;;6.43;;
49614;SDS011;35517;45.272;9.984;2023-06-14T04:57:22;8.77;;;6.57;;
49614;SDS011;35517;45.272;9.984;2023-06-14T04:59:52;9.85;;;6.60;;
49614;SDS011;35517;45.272;9.984;2023-06-14T05:02:21;8.07;;;7.28;;
49614;SDS011;35517;45.272;9.984;2023-06-14T05:04:49;8.75;;;7.57;;
49614;SDS011;35517;45.272;9.984;2023-06-14T05:07:16;8.18;;;7.38;;
49614;SDS011;35517;45.272;9.984;2023-06-14T05:09:43;8.82;;;7.68;;
49614;SDS011;35517;45.272;9.984;2023-06-14T05:12:11;13.77;;;8.55;;
49614;SDS011;35517;45.272;9.984;2023-06-14T05:14:37;10.65;;;8.30;;
49614;SDS011;35517;45.272;9.984;2023-06-14T05:17:05;12.43;;;8.90;;
49614;SDS011;35517;45.272;9.984;2023-06-14T05:19:32;9.38;;;7.85;;
49614;SDS011;35517;45.272;9.984;2023-06-14T05:21:59;16.65;;;8.85;;
49614;SDS011;35517;45.272;9.984;2023-06-14T05:24:25;16.13;;;8.88;;
49614;SDS011;35517;45.272;9.984;2023-06-14T05:26:52;12.25;;;10.27;;
49614;SDS011;35517;45.272;9.984;2023-06-14T05:29:18;11.13;;;9.35;;
49614;SDS011;35517;45.272;9.984;2023-06-14T05:31:45;10.57;;;9.48;;
49614;SDS011;35517;45.272;9.984;2023-06-14T05:34:13;15.23;;;9.63;;
49614;SDS011;35517;45.272;9.984;2023-06-14T05:36:39;14.95;;;10.15;;
49614;SDS011;35517;45.272;9.984;2023-06-14T05:39:06;14.57;;;10.45;;
49614;SDS011;35517;45.272;9.984;2023-06-14T05:41:33;17.25;;;10.65;;
49614;SDS011;35517;45.272;9.984;2023-06-14T05:44:00;16.30;;;11.38;;
49614;SDS011;35517;45.272;9.984;2023-06-14T05:46:27;19.73;;;11.30;;
49614;SDS011;35517;45.272;9.984;2023-06-14T05:48:54;15.48;;;12.52;;
49614;SDS011;35517;45.272;9.984;2023-06-14T05:51:21;14.43;;;11.52;;
49614;SDS011;35517;45.272;9.984;2023-06-14T05:53:50;13.40;;;11.57;;
49614;SDS011;35517;45.272;9.984;2023-06-14T05:56:17;14.32;;;12.32;;
49614;SDS011;35517;45.272;9.984;2023-06-14T05:58:44;15.13;;;11.85;;
49614;SDS011;35517;45.272;9.984;2023-06-14T06:01:11;23.52;;;11.98;;
49614;SDS011;35517;45.272;9.984;2023-06-14T06:03:38;13.88;;;11.65;;
49614;SDS011;35517;45.272;9.984;2023-06-14T06:06:05;15.65;;;10.85;;
49614;SDS011;35517;45.272;9.984;2023-06-14T06:08:31;12.50;;;11.23;;
49614;SDS011;35517;45.272;9.984;2023-06-14T06:10:58;14.40;;;10.93;;
49614;SDS011;35517;45.272;9.984;2023-06-14T06:13:26;13.23;;;10.68;;
49614;SDS011;35517;45.272;9.984;2023-06-14T06:15:52;16.55;;;11.63;;
49614;SDS011;35517;45.272;9.984;2023-06-14T06:18:19;12.25;;;10.85;;
49614;SDS011;35517;45.272;9.984;2023-06-14T06:20:45;13.88;;;11.10;;
49614;SDS011;35517;45.272;9.984;2023-06-14T06:23:12;14.43;;;10.52;;
49614;SDS011;35517;45.272;9.984;2023-06-14T06:25:39;13.32;;;9.90;;
49614;SDS011;35517;45.272;9.984;2023-06-14T06:28:05;18.00;;;10.85;;
49614;SDS011;35517;45.272;9.984;2023-06-14T06:30:32;14.32;;;10.93;;
49614;SDS011;35517;45.272;9.984;2023-06-14T06:32:58;13.52;;;11.02;;
49614;SDS011;35517;45.272;9.984;2023-06-14T06:35:25;16.10;;;11.95;;
49614;SDS011;35517;45.272;9.984;2023-06-14T06:37:51;12.50;;;10.10;;
49614;SDS011;35517;45.272;9.984;2023-06-14T06:40:18;15.38;;;11.50;;
49614;SDS011;35517;45.272;9.984;2023-06-14T06:42:45;15.48;;;11.80;;
49614;SDS011;35517;45.272;9.984;2023-06-14T06:45:13;12.95;;;10.82;;
49614;SDS011;35517;45.272;9.984;2023-06-14T06:47:39;16.90;;;11.38;;
49614;SDS011;35517;45.272;9.984;2023-06-14T06:50:06;15.68;;;10.70;;
49614;SDS011;35517;45.272;9.984;2023-06-14T06:52:33;17.80;;;12.07;;
49614;SDS011;35517;45.272;9.984;2023-06-14T06:54:59;16.15;;;10.93;;
49614;SDS011;35517;45.272;9.984;2023-06-14T06:57:27;17.55;;;11.75;;
49614;SDS011;35517;45.272;9.984;2023-06-14T06:59:54;12.55;;;11.05;;
49614;SDS011;35517;45.272;9.984;2023-06-14T07:02:21;13.02;;;9.85;;
49614;SDS011;35517;45.272;9.984;2023-06-14T07:04:50;15.73;;;11.85;;
49614;SDS011;35517;45.272;9.984;2023-06-14T07:07:17;13.30;;;11.20;;
49614;SDS011;35517;45.272;9.984;2023-06-14T07:09:44;14.30;;;11.10;;
49614;SDS011;35517;45.272;9.984;2023-06-14T07:12:11;13.95;;;11.60;;
49614;SDS011;35517;45.272;9.984;2023-06-14T07:14:38;14.70;;;11.70;;
49614;SDS011;35517;45.272;9.984;2023-06-14T07:17:04;17.15;;;11.40;;
49614;SDS011;35517;45.272;9.984;2023-06-14T07:19:32;18.02;;;10.68;;
49614;SDS011;35517;45.272;9.984;2023-06-14T07:21:58;13.73;;;11.55;;
49614;SDS011;35517;45.272;9.984;2023-06-14T07:24:25;14.40;;;11.10;;
49614;SDS011;35517;45.272;9.984;2023-06-14T07:26:53;15.85;;;12.25;;
49614;SDS011;35517;45.272;9.984;2023-06-14T07:29:21;15.30;;;12.20;;
49614;SDS011;35517;45.272;9.984;2023-06-14T07:31:49;18.17;;;11.90;;
49614;SDS011;35517;45.272;9.984;2023-06-14T07:34:16;15.10;;;11.32;;
49614;SDS011;35517;45.272;9.984;2023-06-14T07:36:42;14.15;;;10.32;;
49614;SDS011;35517;45.272;9.984;2023-06-14T07:39:10;12.88;;;10.65;;
49614;SDS011;35517;45.272;9.984;2023-06-14T07:41:37;16.88;;;12.80;;
49614;SDS011;35517;45.272;9.984;2023-06-14T07:44:03;13.93;;;11.00;;
49614;SDS011;35517;45.272;9.984;2023-06-14T07:46:30;19.08;;;12.75;;
49614;SDS011;35517;45.272;9.984;2023-06-14T07:48:56;14.63;;;11.68;;
49614;SDS011;35517;45.272;9.984;2023-06-14T07:51:23;13.77;;;11.70;;
49614;SDS011;35517;45.272;9.984;2023-06-14T07:53:50;14.23;;;11.27;;
49614;SDS011;35517;45.272;9.984;2023-06-14T07:56:16;13.52;;;11.48;;
49614;SDS011;35517;45.272;9.984;2023-06-14T07:58:43;14.40;;;11.15;;
49614;SDS011;35517;45.272;9.984;2023-06-14T08:01:09;11.95;;;10.15;;
49614;SDS011;35517;45.272;9.984;2023-06-14T08:03:37;14.25;;;11.35;;
49614;SDS011;35517;45.272;9.984;2023-06-14T08:06:03;13.00;;;11.00;;
49614;SDS011;35517;45.272;9.984;2023-06-14T08:08:30;12.60;;;11.27;;
49614;SDS011;35517;45.272;9.984;2023-06-14T08:10:57;15.68;;;10.18;;
49614;SDS011;35517;45.272;9.984;2023-06-14T08:13:23;18.52;;;11.45;;
49614;SDS011;35517;45.272;9.984;2023-06-14T08:15:49;16.50;;;10.00;;
49614;SDS011;35517;45.272;9.984;2023-06-14T08:18:16;16.20;;;10.63;;
49614;SDS011;35517;45.272;9.984;2023-06-14T08:20:44;16.67;;;11.45;;
49614;SDS011;35517;45.272;9.984;2023-06-14T08:23:11;20.80;;;11.45;;
49614;SDS011;35517;45.272;9.984;2023-06-14T08:25:37;15.18;;;10.60;;
49614;SDS011;35517;45.272;9.984;2023-06-14T08:28:04;14.52;;;10.63;;
49614;SDS011;35517;45.272;9.984;2023-06-14T08:30:30;12.48;;;10.85;;
49614;SDS011;35517;45.272;9.984;2023-06-14T08:32:57;14.02;;;10.48;;
49614;SDS011;35517;45.272;9.984;2023-06-14T08:35:23;13.88;;;10.10;;
49614;SDS011;35517;45.272;9.984;2023-06-14T08:37:50;15.77;;;10.15;;
49614;SDS011;35517;45.272;9.984;2023-06-14T08:40:21;13.93;;;10.18;;
49614;SDS011;35517;45.272;9.984;2023-06-14T08:42:51;17.88;;;11.27;;
49614;SDS011;35517;45.272;9.984;2023-06-14T08:45:19;16.38;;;10.75;;
49614;SDS011;35517;45.272;9.984;2023-06-14T08:47:47;19.30;;;11.13;;
49614;SDS011;35517;45.272;9.984;2023-06-14T08:50:20;14.20;;;10.48;;
49614;SDS011;35517;45.272;9.984;2023-06-14T08:52:48;12.77;;;9.88;;
49614;SDS011;35517;45.272;9.984;2023-06-14T08:55:16;15.23;;;9.82;;
49614;SDS011;35517;45.272;9.984;2023-06-14T08:57:43;15.10;;;9.73;;
49614;SDS011;35517;45.272;9.984;2023-06-14T09:00:10;14.73;;;10.15;;
49614;SDS011;35517;45.272;9.984;2023-06-14T09:02:38;15.25;;;9.40;;
49614;SDS011;35517;45.272;9.984;2023-06-14T09:05:09;14.20;;;9.32;;
49614;SDS011;35517;45.272;9.984;2023-06-14T09:07:37;14.70;;;9.38;;
49614;SDS011;35517;45.272;9.984;2023-06-14T09:10:05;12.38;;;8.45;;
49614;SDS011;35517;45.272;9.984;2023-06-14T09:12:34;13.48;;;8.63;;
49614;SDS011;35517;45.272;9.984;2023-06-14T09:15:00;12.55;;;9.05;;
49614;SDS011;35517;45.272;9.984;2023-06-14T09:17:38;19.25;;;9.82;;
49614;SDS011;35517;45.272;9.984;2023-06-14T09:20:05;11.02;;;8.60;;
49614;SDS011;35517;45.272;9.984;2023-06-14T09:22:33;12.70;;;8.50;;
49614;SDS011;35517;45.272;9.984;2023-06-14T09:25:00;16.90;;;9.20;;
49614;SDS011;35517;45.272;9.984;2023-06-14T09:27:26;15.27;;;8.88;;
49614;SDS011;35517;45.272;9.984;2023-06-14T09:29:53;12.55;;;8.27;;
49614;SDS011;35517;45.272;9.984;2023-06-14T09:32:23;10.38;;;8.15;;
49614;SDS011;35517;45.272;9.984;2023-06-14T09:34:51;9.82;;;8.75;;
49614;SDS011;35517;45.272;9.984;2023-06-14T09:37:27;9.85;;;8.05;;
49614;SDS011;35517;45.272;9.984;2023-06-14T09:39:55;11.73;;;8.35;;
49614;SDS011;35517;45.272;9.984;2023-06-14T09:42:22;13.02;;;8.05;;
49614;SDS011;35517;45.272;9.984;2023-06-14T09:44:52;11.00;;;7.68;;
49614;SDS011;35517;45.272;9.984;2023-06-14T09:47:19;12.90;;;7.65;;
49614;SDS011;35517;45.272;9.984;2023-06-14T09:49:47;11.70;;;7.20;;
49614;SDS011;35517;45.272;9.984;2023-06-14T09:52:14;12.85;;;6.60;;
49614;SDS011;35517;45.272;9.984;2023-06-14T09:54:42;8.70;;;7.20;;
49614;SDS011;35517;45.272;9.984;2023-06-14T09:57:13;13.00;;;6.63;;
49614;SDS011;35517;45.272;9.984;2023-06-14T09:59:46;10.20;;;7.47;;
49614;SDS011;35517;45.272;9.984;2023-06-14T10:04:56;11.38;;;6.72;;
49614;SDS011;35517;45.272;9.984;2023-06-14T10:07:26;9.88;;;6.47;;
49614;SDS011;35517;45.272;9.984;2023-06-14T10:09:56;10.80;;;7.38;;
49614;SDS011;35517;45.272;9.984;2023-06-14T10:12:23;10.20;;;6.05;;
49614;SDS011;35517;45.272;9.984;2023-06-14T10:14:50;8.73;;;7.00;;
49614;SDS011;35517;45.272;9.984;2023-06-14T10:17:40;9.45;;;6.90;;
49614;SDS011;35517;45.272;9.984;2023-06-14T10:23:04;10.88;;;6.85;;
49614;SDS011;35517;45.272;9.984;2023-06-14T10:25:35;13.60;;;6.40;;
49614;SDS011;35517;45.272;9.984;2023-06-14T10:28:02;9.05;;;6.95;;
49614;SDS011;35517;45.272;9.984;2023-06-14T10:30:29;11.38;;;8.45;;
49614;SDS011;35517;45.272;9.984;2023-06-14T10:33:03;11.23;;;7.63;;
49614;SDS011;35517;45.272;9.984;2023-06-14T10:35:31;8.15;;;6.57;;
49614;SDS011;35517;45.272;9.984;2023-06-14T10:38:13;8.95;;;6.22;;
49614;SDS011;35517;45.272;9.984;2023-06-14T10:40:40;9.10;;;6.65;;
49614;SDS011;35517;45.272;9.984;2023-06-14T10:43:23;11.00;;;7.75;;
49614;SDS011;35517;45.272;9.984;2023-06-14T10:48:40;12.07;;;7.68;;
49614;SDS011;35517;45.272;9.984;2023-06-14T10:51:29;11.45;;;7.75;;
49614;SDS011;35517;45.272;9.984;2023-06-14T10:53:57;11.48;;;6.70;;
49614;SDS011;35517;45.272;9.984;2023-06-14T10:56:29;14.77;;;7.07;;
49614;SDS011;35517;45.272;9.984;2023-06-14T10:58:57;10.00;;;6.57;;
49614;SDS011;35517;45.272;9.984;2023-06-14T11:02:10;9.40;;;6.32;;
49614;SDS011;35517;45.272;9.984;2023-06-14T11:04:14;8.30;;;6.00;;
49614;SDS011;35517;45.272;9.984;2023-06-14T11:06:50;10.27;;;6.85;;
49614;SDS011;35517;45.272;9.984;2023-06-14T11:11:51;13.50;;;8.07;;
49614;SDS011;35517;45.272;9.984;2023-06-14T11:14:17;9.27;;;6.43;;
49614;SDS011;35517;45.272;9.984;2023-06-14T11:16:47;7.32;;;6.57;;
49614;SDS011;35517;45.272;9.984;2023-06-14T11:19:14;5.95;;;5.32;;
49614;SDS011;35517;45.272;9.984;2023-06-14T11:21:42;10.18;;;5.22;;
49614;SDS011;35517;45.272;9.984;2023-06-14T11:24:10;7.82;;;4.75;;
49614;SDS011;35517;45.272;9.984;2023-06-14T11:26:37;8.07;;;5.35;;
49614;SDS011;35517;45.272;9.984;2023-06-14T11:29:04;9.00;;;4.90;;
49614;SDS011;35517;45.272;9.984;2023-06-14T11:31:31;4.65;;;4.18;;
49614;SDS011;35517;45.272;9.984;2023-06-14T11:33:58;6.53;;;3.25;;
49614;SDS011;35517;45.272;9.984;2023-06-14T11:36:28;3.70;;;3.30;;
49614;SDS011;35517;45.272;9.984;2023-06-14T11:39:13;9.43;;;3.25;;
49614;SDS011;35517;45.272;9.984;2023-06-14T11:41:42;6.57;;;4.43;;
49614;SDS011;35517;45.272;9.984;2023-06-14T11:44:08;3.63;;;3.33;;
49614;SDS011;35517;45.272;9.984;2023-06-14T11:46:35;5.70;;;3.13;;
49614;SDS011;35517;45.272;9.984;2023-06-14T11:49:02;6.35;;;3.30;;
49614;SDS011;35517;45.272;9.984;2023-06-14T11:51:30;16.92;;;3.75;;
49614;SDS011;35517;45.272;9.984;2023-06-14T11:53:58;5.30;;;3.75;;
49614;SDS011;35517;45.272;9.984;2023-06-14T11:56:25;5.95;;;2.50;;
49614;SDS011;35517;45.272;9.984;2023-06-14T11:58:52;9.10;;;4.05;;
49614;SDS011;35517;45.272;9.984;2023-06-14T12:01:22;4.30;;;3.42;;
49614;SDS011;35517;45.272;9.984;2023-06-14T12:03:52;7.13;;;3.20;;
49614;SDS011;35517;45.272;9.984;2023-06-14T12:06:26;5.53;;;3.00;;
49614;SDS011;35517;45.272;9.984;2023-06-14T12:09:04;4.18;;;3.35;;
49614;SDS011;35517;45.272;9.984;2023-06-14T12:11:59;3.60;;;3.30;;
49614;SDS011;35517;45.272;9.984;2023-06-14T12:14:30;3.33;;;2.70;;
49614;SDS011;35517;45.272;9.984;2023-06-14T12:17:03;4.82;;;2.88;;
49614;SDS011;35517;45.272;9.984;2023-06-14T12:19:31;6.20;;;2.90;;
49614;SDS011;35517;45.272;9.984;2023-06-14T12:22:01;5.22;;;3.47;;
49614;SDS011;35517;45.272;9.984;2023-06-14T12:24:30;6.45;;;3.53;;
49614;SDS011;35517;45.272;9.984;2023-06-14T12:26:58;9.20;;;3.97;;
49614;SDS011;35517;45.272;9.984;2023-06-14T12:29:31;4.50;;;3.58;;
49614;SDS011;35517;45.272;9.984;2023-06-14T12:31:58;4.88;;;3.95;;
49614;SDS011;35517;45.272;9.984;2023-06-14T12:34:24;4.15;;;3.47;;
49614;SDS011;35517;45.272;9.984;2023-06-14T12:36:55;3.67;;;2.03;;
49614;SDS011;35517;45.272;9.984;2023-06-14T12:39:22;5.75;;;2.88;;
49614;SDS011;35517;45.272;9.984;2023-06-14T12:41:50;4.78;;;2.90;;
49614;SDS011;35517;45.272;9.984;2023-06-14T12:44:16;6.00;;;3.20;;
49614;SDS011;35517;45.272;9.984;2023-06-14T12:46:43;3.80;;;2.75;;
49614;SDS011;35517;45.272;9.984;2023-06-14T12:49:10;4.00;;;3.05;;
49614;SDS011;35517;45.272;9.984;2023-06-14T12:51:37;9.52;;;4.68;;
49614;SDS011;35517;45.272;9.984;2023-06-14T12:54:04;4.35;;;2.70;;
49614;SDS011;35517;45.272;9.984;2023-06-14T12:56:31;4.28;;;2.85;;
49614;SDS011;35517;45.272;9.984;2023-06-14T12:58:58;6.50;;;4.18;;
49614;SDS011;35517;45.272;9.984;2023-06-14T13:01:24;5.05;;;3.78;;
49614;SDS011;35517;45.272;9.984;2023-06-14T13:03:51;4.10;;;3.15;;
49614;SDS011;35517;45.272;9.984;2023-06-14T13:06:22;7.57;;;3.22;;
49614;SDS011;35517;45.272;9.984;2023-06-14T13:08:49;9.27;;;2.53;;
49614;SDS011;35517;45.272;9.984;2023-06-14T13:11:16;3.65;;;2.63;;
49614;SDS011;35517;45.272;9.984;2023-06-14T13:13:42;5.70;;;3.22;;
49614;SDS011;35517;45.272;9.984;2023-06-14T13:16:09;5.15;;;2.30;;
49614;SDS011;35517;45.272;9.984;2023-06-14T13:18:36;5.80;;;3.17;;
49614;SDS011;35517;45.272;9.984;2023-06-14T13:21:02;6.00;;;2.20;;
49614;SDS011;35517;45.272;9.984;2023-06-14T13:23:29;2.28;;;1.58;;
49614;SDS011;35517;45.272;9.984;2023-06-14T13:25:55;2.30;;;2.03;;
49614;SDS011;35517;45.272;9.984;2023-06-14T13:28:22;4.05;;;2.58;;
49614;SDS011;35517;45.272;9.984;2023-06-14T13:30:48;4.57;;;2.45;;
49614;SDS011;35517;45.272;9.984;2023-06-14T13:33:15;7.40;;;2.50;;
49614;SDS011;35517;45.272;9.984;2023-06-14T13:35:42;3.75;;;2.10;;
49614;SDS011;35517;45.272;9.984;2023-06-14T13:38:09;4.97;;;2.35;;
49614;SDS011;35517;45.272;9.984;2023-06-14T13:40:36;2.72;;;1.40;;
49614;SDS011;35517;45.272;9.984;2023-06-14T13:43:03;3.30;;;1.85;;
49614;SDS011;35517;45.272;9.984;2023-06-14T13:45:30;4.63;;;2.00;;
49614;SDS011;35517;45.272;9.984;2023-06-14T13:47:56;2.78;;;1.70;;
49614;SDS011;35517;45.272;9.984;2023-06-14T13:50:23;2.53;;;1.90;;
49614;SDS011;35517;45.272;9.984;2023-06-14T13:52:50;3.20;;;1.77;;
49614;SDS011;35517;45.272;9.984;2023-06-14T13:55:16;3.78;;;1.85;;
49614;SDS011;35517;45.272;9.984;2023-06-14T13:57:43;3.10;;;2.17;;
49614;SDS011;35517;45.272;9.984;2023-06-14T14:00:10;4.57;;;2.22;;
49614;SDS011;35517;45.272;9.984;2023-06-14T14:02:41;3.20;;;2.00;;
49614;SDS011;35517;45.272;9.984;2023-06-14T14:05:08;3.15;;;2.22;;
49614;SDS011;35517;45.272;9.984;2023-06-14T14:07:35;7.05;;;2.25;;
49614;SDS011;35517;45.272;9.984;2023-06-14T14:10:02;6.07;;;3.15;;
49614;SDS011;35517;45.272;9.984;2023-06-14T14:12:29;3.95;;;2.35;;
49614;SDS011;35517;45.272;9.984;2023-06-14T14:14:55;2.10;;;1.90;;
49614;SDS011;35517;45.272;9.984;2023-06-14T14:17:22;5.57;;;2.15;;
49614;SDS011;35517;45.272;9.984;2023-06-14T14:19:48;4.25;;;2.30;;
49614;SDS011;35517;45.272;9.984;2023-06-14T14:22:15;4.72;;;2.45;;
49614;SDS011;35517;45.272;9.984;2023-06-14T14:24:41;2.83;;;2.15;;
49614;SDS011;35517;45.272;9.984;2023-06-14T14:27:08;3.35;;;2.58;;
49614;SDS011;35517;45.272;9.984;2023-06-14T14:29:37;5.40;;;2.20;;
49614;SDS011;35517;45.272;9.984;2023-06-14T14:32:03;2.78;;;1.98;;
49614;SDS011;35517;45.272;9.984;2023-06-14T14:34:30;4.35;;;2.30;;
49614;SDS011;35517;45.272;9.984;2023-06-14T14:36:57;3.20;;;2.25;;
49614;SDS011;35517;45.272;9.984;2023-06-14T14:39:23;3.92;;;1.63;;
49614;SDS011;35517;45.272;9.984;2023-06-14T14:41:50;3.80;;;2.00;;
49614;SDS011;35517;45.272;9.984;2023-06-14T14:44:17;3.05;;;1.85;;
49614;SDS011;35517;45.272;9.984;2023-06-14T14:46:44;3.10;;;1.85;;
49614;SDS011;35517;45.272;9.984;2023-06-14T14:49:11;5.75;;;1.88;;
49614;SDS011;35517;45.272;9.984;2023-06-14T14:51:38;4.22;;;1.52;;
49614;SDS011;35517;45.272;9.984;2023-06-14T14:54:05;7.82;;;3.28;;
49614;SDS011;35517;45.272;9.984;2023-06-14T14:56:32;4.97;;;1.77;;